sensor_id;sensor_type;location;lat;lon;timestamp;temperature;humidity
24468;DHT22;12634;50.852;5.676;2024-01-10T00:02:08;-5.20;99.90
24468;DHT22;12634;50.852;5.676;2024-01-10T00:04:36;-5.30;99.90
24468;DHT22;12634;50.852;5.676;2024-01-10T00:07:03;-5.30;99.90
24468;DHT22;12634;50.852;5.676;2024-01-10T00:09:30;-5.30;99.90
24468;DHT22;12634;50.852;5.676;2024-01-10T00:11:57;-5.20;99.90
24468;DHT22;12634;50.852;5.676;2024-01-10T00:14:25;-5.30;99.90
24468;DHT22;12634;50.852;5.676;2024-01-10T00:16:53;-5.40;99.90
24468;DHT22;12634;50.852;5.676;2024-01-10T00:19:20;-5.50;99.90
24468;DHT22;12634;50.852;5.676;2024-01-10T00:21:48;-5.40;99.90
24468;DHT22;12634;50.852;5.676;2024-01-10T00:24:15;-5.50;99.90
24468;DHT22;12634;50.852;5.676;2024-01-10T00:26:42;-5.70;99.90
24468;DHT22;12634;50.852;5.676;2024-01-10T00:29:09;-5.50;99.90
24468;DHT22;12634;50.852;5.676;2024-01-10T00:31:36;-5.40;99.90
24468;DHT22;12634;50.852;5.676;2024-01-10T00:34:05;-5.50;99.90
24468;DHT22;12634;50.852;5.676;2024-01-10T00:36:32;-5.40;99.90
24468;DHT22;12634;50.852;5.676;2024-01-10T00:38:59;-5.40;99.90
24468;DHT22;12634;50.852;5.676;2024-01-10T00:41:27;-5.50;99.90
24468;DHT22;12634;50.852;5.676;2024-01-10T00:43:54;-5.60;99.90
24468;DHT22;12634;50.852;5.676;2024-01-10T00:46:21;-5.40;99.90
24468;DHT22;12634;50.852;5.676;2024-01-10T00:48:48;-5.60;99.90
24468;DHT22;12634;50.852;5.676;2024-01-10T00:51:16;-5.60;99.90
24468;DHT22;12634;50.852;5.676;2024-01-10T00:53:44;-5.60;99.90
24468;DHT22;12634;50.852;5.676;2024-01-10T00:56:11;-5.50;99.90
24468;DHT22;12634;50.852;5.676;2024-01-10T00:58:38;-5.50;99.90
24468;DHT22;12634;50.852;5.676;2024-01-10T01:01:05;-5.60;99.90
24468;DHT22;12634;50.852;5.676;2024-01-10T01:03:32;-5.60;99.90
24468;DHT22;12634;50.852;5.676;2024-01-10T01:05:59;-5.60;99.90
24468;DHT22;12634;50.852;5.676;2024-01-10T01:08:29;-5.50;99.90
24468;DHT22;12634;50.852;5.676;2024-01-10T01:10:56;-5.50;99.90
24468;DHT22;12634;50.852;5.676;2024-01-10T01:13:23;-5.70;99.90
24468;DHT22;12634;50.852;5.676;2024-01-10T01:15:50;-5.70;99.90
24468;DHT22;12634;50.852;5.676;2024-01-10T01:18:19;-5.80;99.90
24468;DHT22;12634;50.852;5.676;2024-01-10T01:20:46;-5.80;99.90
24468;DHT22;12634;50.852;5.676;2024-01-10T01:23:15;-6.00;99.90
24468;DHT22;12634;50.852;5.676;2024-01-10T01:25:44;-5.90;99.90
24468;DHT22;12634;50.852;5.676;2024-01-10T01:28:11;-6.00;99.90
24468;DHT22;12634;50.852;5.676;2024-01-10T01:30:38;-6.00;99.90
24468;DHT22;12634;50.852;5.676;2024-01-10T01:33:05;-6.00;99.90
24468;DHT22;12634;50.852;5.676;2024-01-10T01:35:33;-6.10;99.90
24468;DHT22;12634;50.852;5.676;2024-01-10T01:38:00;-6.00;99.90
24468;DHT22;12634;50.852;5.676;2024-01-10T01:40:27;-6.20;99.90
24468;DHT22;12634;50.852;5.676;2024-01-10T01:42:56;-6.10;99.90
24468;DHT22;12634;50.852;5.676;2024-01-10T01:45:24;-6.20;99.90
24468;DHT22;12634;50.852;5.676;2024-01-10T01:47:51;-6.30;99.90
24468;DHT22;12634;50.852;5.676;2024-01-10T01:50:18;-6.20;99.90
24468;DHT22;12634;50.852;5.676;2024-01-10T01:52:46;-6.20;99.90
24468;DHT22;12634;50.852;5.676;2024-01-10T01:55:13;-6.30;99.90
24468;DHT22;12634;50.852;5.676;2024-01-10T01:57:40;-6.40;99.90
24468;DHT22;12634;50.852;5.676;2024-01-10T02:00:10;-6.20;99.90
24468;DHT22;12634;50.852;5.676;2024-01-10T02:02:37;-6.20;99.90
24468;DHT22;12634;50.852;5.676;2024-01-10T02:05:05;-6.10;99.90
24468;DHT22;12634;50.852;5.676;2024-01-10T02:07:33;-6.20;99.90
24468;DHT22;12634;50.852;5.676;2024-01-10T02:10:00;-6.20;99.90
24468;DHT22;12634;50.852;5.676;2024-01-10T02:12:27;-6.20;99.90
24468;DHT22;12634;50.852;5.676;2024-01-10T02:14:54;-6.30;99.90
24468;DHT22;12634;50.852;5.676;2024-01-10T02:17:23;-6.00;99.90
24468;DHT22;12634;50.852;5.676;2024-01-10T02:20:07;-6.10;99.90
24468;DHT22;12634;50.852;5.676;2024-01-10T02:22:35;-6.10;99.90
24468;DHT22;12634;50.852;5.676;2024-01-10T02:25:04;-6.20;99.90
24468;DHT22;12634;50.852;5.676;2024-01-10T02:27:31;-6.10;99.90
24468;DHT22;12634;50.852;5.676;2024-01-10T02:29:59;-6.10;99.90
24468;DHT22;12634;50.852;5.676;2024-01-10T02:32:28;-6.10;99.90
24468;DHT22;12634;50.852;5.676;2024-01-10T02:34:55;-6.10;99.90
24468;DHT22;12634;50.852;5.676;2024-01-10T02:37:22;-6.10;99.90
24468;DHT22;12634;50.852;5.676;2024-01-10T02:39:50;-6.10;99.90
24468;DHT22;12634;50.852;5.676;2024-01-10T02:42:18;-6.10;99.90
24468;DHT22;12634;50.852;5.676;2024-01-10T02:44:45;-6.10;99.90
24468;DHT22;12634;50.852;5.676;2024-01-10T02:47:13;-6.30;99.90
24468;DHT22;12634;50.852;5.676;2024-01-10T02:49:40;-6.30;99.90
24468;DHT22;12634;50.852;5.676;2024-01-10T02:52:07;-6.30;99.90
24468;DHT22;12634;50.852;5.676;2024-01-10T02:54:34;-6.20;99.90
24468;DHT22;12634;50.852;5.676;2024-01-10T02:57:01;-6.30;99.90
24468;DHT22;12634;50.852;5.676;2024-01-10T02:59:29;-6.20;99.90
24468;DHT22;12634;50.852;5.676;2024-01-10T03:01:57;-6.20;99.90
24468;DHT22;12634;50.852;5.676;2024-01-10T03:04:25;-6.20;99.90
24468;DHT22;12634;50.852;5.676;2024-01-10T03:06:52;-6.20;99.90
24468;DHT22;12634;50.852;5.676;2024-01-10T03:09:19;-6.20;99.90
24468;DHT22;12634;50.852;5.676;2024-01-10T03:11:46;-6.10;99.90
24468;DHT22;12634;50.852;5.676;2024-01-10T03:14:13;-6.10;99.90
24468;DHT22;12634;50.852;5.676;2024-01-10T03:16:42;-6.10;99.90
24468;DHT22;12634;50.852;5.676;2024-01-10T03:19:09;-6.20;99.90
24468;DHT22;12634;50.852;5.676;2024-01-10T03:21:36;-6.20;99.90
24468;DHT22;12634;50.852;5.676;2024-01-10T03:24:04;-6.30;99.90
24468;DHT22;12634;50.852;5.676;2024-01-10T03:26:31;-6.30;99.90
24468;DHT22;12634;50.852;5.676;2024-01-10T03:28:58;-6.30;99.90
24468;DHT22;12634;50.852;5.676;2024-01-10T03:31:28;-6.30;99.90
24468;DHT22;12634;50.852;5.676;2024-01-10T03:33:57;-6.30;99.90
24468;DHT22;12634;50.852;5.676;2024-01-10T03:36:25;-6.30;99.90
24468;DHT22;12634;50.852;5.676;2024-01-10T03:38:52;-6.30;99.90
24468;DHT22;12634;50.852;5.676;2024-01-10T03:41:20;-6.20;99.90
24468;DHT22;12634;50.852;5.676;2024-01-10T03:43:47;-6.10;99.90
24468;DHT22;12634;50.852;5.676;2024-01-10T03:46:16;-6.00;99.90
24468;DHT22;12634;50.852;5.676;2024-01-10T03:48:43;-6.10;99.90
24468;DHT22;12634;50.852;5.676;2024-01-10T03:51:16;-6.10;99.90
24468;DHT22;12634;50.852;5.676;2024-01-10T03:53:44;-6.10;99.90
24468;DHT22;12634;50.852;5.676;2024-01-10T03:56:12;-6.00;99.90
24468;DHT22;12634;50.852;5.676;2024-01-10T03:58:39;-6.10;99.90
24468;DHT22;12634;50.852;5.676;2024-01-10T04:01:08;-6.00;99.90
24468;DHT22;12634;50.852;5.676;2024-01-10T04:03:35;-6.10;99.90
24468;DHT22;12634;50.852;5.676;2024-01-10T04:06:04;-6.20;99.90
24468;DHT22;12634;50.852;5.676;2024-01-10T04:08:32;-6.30;99.90
24468;DHT22;12634;50.852;5.676;2024-01-10T04:10:59;-6.30;99.90
24468;DHT22;12634;50.852;5.676;2024-01-10T04:13:29;-6.30;99.90
24468;DHT22;12634;50.852;5.676;2024-01-10T04:15:56;-6.30;99.90
24468;DHT22;12634;50.852;5.676;2024-01-10T04:18:23;-6.10;99.90
24468;DHT22;12634;50.852;5.676;2024-01-10T04:20:50;-6.20;99.90
24468;DHT22;12634;50.852;5.676;2024-01-10T04:23:17;-6.30;99.90
24468;DHT22;12634;50.852;5.676;2024-01-10T04:25:47;-6.30;99.90
24468;DHT22;12634;50.852;5.676;2024-01-10T04:28:14;-6.30;99.90
24468;DHT22;12634;50.852;5.676;2024-01-10T04:30:42;-6.40;99.90
24468;DHT22;12634;50.852;5.676;2024-01-10T04:33:09;-6.30;99.90
24468;DHT22;12634;50.852;5.676;2024-01-10T04:35:36;-6.30;99.90
24468;DHT22;12634;50.852;5.676;2024-01-10T04:38:04;-6.40;99.90
24468;DHT22;12634;50.852;5.676;2024-01-10T04:40:31;-6.30;99.90
24468;DHT22;12634;50.852;5.676;2024-01-10T04:42:59;-6.30;99.90
24468;DHT22;12634;50.852;5.676;2024-01-10T04:45:26;-6.30;99.90
24468;DHT22;12634;50.852;5.676;2024-01-10T04:47:54;-6.30;99.90
24468;DHT22;12634;50.852;5.676;2024-01-10T04:50:21;-6.30;99.90
24468;DHT22;12634;50.852;5.676;2024-01-10T04:52:48;-6.30;99.90
24468;DHT22;12634;50.852;5.676;2024-01-10T04:55:15;-6.20;99.90
24468;DHT22;12634;50.852;5.676;2024-01-10T04:57:42;-6.20;99.90
24468;DHT22;12634;50.852;5.676;2024-01-10T05:00:11;-6.20;99.90
24468;DHT22;12634;50.852;5.676;2024-01-10T05:02:38;-6.30;99.90
24468;DHT22;12634;50.852;5.676;2024-01-10T05:05:07;-6.20;99.90
24468;DHT22;12634;50.852;5.676;2024-01-10T05:07:34;-6.20;99.90
24468;DHT22;12634;50.852;5.676;2024-01-10T05:10:01;-6.20;99.90
24468;DHT22;12634;50.852;5.676;2024-01-10T05:12:28;-6.20;99.90
24468;DHT22;12634;50.852;5.676;2024-01-10T05:14:55;-6.30;99.90
24468;DHT22;12634;50.852;5.676;2024-01-10T05:17:24;-6.20;99.90
24468;DHT22;12634;50.852;5.676;2024-01-10T05:19:51;-6.20;99.90
24468;DHT22;12634;50.852;5.676;2024-01-10T05:22:18;-6.30;99.90
24468;DHT22;12634;50.852;5.676;2024-01-10T05:24:47;-6.30;99.90
24468;DHT22;12634;50.852;5.676;2024-01-10T05:27:14;-6.30;99.90
24468;DHT22;12634;50.852;5.676;2024-01-10T05:29:42;-6.30;99.90
24468;DHT22;12634;50.852;5.676;2024-01-10T05:32:09;-6.20;99.90
24468;DHT22;12634;50.852;5.676;2024-01-10T05:34:37;-6.30;99.90
24468;DHT22;12634;50.852;5.676;2024-01-10T05:37:04;-6.30;99.90
24468;DHT22;12634;50.852;5.676;2024-01-10T05:39:32;-6.30;99.90
24468;DHT22;12634;50.852;5.676;2024-01-10T05:41:59;-6.30;99.90
24468;DHT22;12634;50.852;5.676;2024-01-10T05:44:29;-6.30;99.90
24468;DHT22;12634;50.852;5.676;2024-01-10T05:46:56;-6.30;99.90
24468;DHT22;12634;50.852;5.676;2024-01-10T05:49:25;-6.40;99.90
24468;DHT22;12634;50.852;5.676;2024-01-10T05:51:53;-6.40;99.90
24468;DHT22;12634;50.852;5.676;2024-01-10T05:54:20;-6.40;99.90
24468;DHT22;12634;50.852;5.676;2024-01-10T05:56:47;-6.30;99.90
24468;DHT22;12634;50.852;5.676;2024-01-10T05:59:15;-6.30;99.90
24468;DHT22;12634;50.852;5.676;2024-01-10T06:01:42;-6.40;99.90
24468;DHT22;12634;50.852;5.676;2024-01-10T06:04:10;-6.50;99.90
24468;DHT22;12634;50.852;5.676;2024-01-10T06:06:37;-6.40;99.90
24468;DHT22;12634;50.852;5.676;2024-01-10T06:09:05;-6.50;99.90
24468;DHT22;12634;50.852;5.676;2024-01-10T06:11:41;-6.70;99.90
24468;DHT22;12634;50.852;5.676;2024-01-10T06:14:09;-6.50;99.90
24468;DHT22;12634;50.852;5.676;2024-01-10T06:16:36;-6.60;99.90
24468;DHT22;12634;50.852;5.676;2024-01-10T06:19:03;-6.60;99.90
24468;DHT22;12634;50.852;5.676;2024-01-10T06:21:30;-6.60;99.90
24468;DHT22;12634;50.852;5.676;2024-01-10T06:23:57;-6.60;99.90
24468;DHT22;12634;50.852;5.676;2024-01-10T06:26:26;-6.50;99.90
24468;DHT22;12634;50.852;5.676;2024-01-10T06:28:53;-6.50;99.90
24468;DHT22;12634;50.852;5.676;2024-01-10T06:31:20;-6.50;99.90
24468;DHT22;12634;50.852;5.676;2024-01-10T06:33:47;-6.40;99.90
24468;DHT22;12634;50.852;5.676;2024-01-10T06:36:15;-6.40;99.90
24468;DHT22;12634;50.852;5.676;2024-01-10T06:38:42;-6.40;99.90
24468;DHT22;12634;50.852;5.676;2024-01-10T06:41:09;-6.40;99.90
24468;DHT22;12634;50.852;5.676;2024-01-10T06:43:38;-6.30;99.90
24468;DHT22;12634;50.852;5.676;2024-01-10T06:46:06;-6.50;99.90
24468;DHT22;12634;50.852;5.676;2024-01-10T06:48:33;-6.40;99.90
24468;DHT22;12634;50.852;5.676;2024-01-10T06:51:00;-6.40;99.90
24468;DHT22;12634;50.852;5.676;2024-01-10T06:53:27;-6.40;99.90
24468;DHT22;12634;50.852;5.676;2024-01-10T06:55:55;-6.50;99.90
24468;DHT22;12634;50.852;5.676;2024-01-10T06:58:22;-6.50;99.90
24468;DHT22;12634;50.852;5.676;2024-01-10T07:00:50;-6.60;99.90
24468;DHT22;12634;50.852;5.676;2024-01-10T07:03:18;-6.50;99.90
24468;DHT22;12634;50.852;5.676;2024-01-10T07:05:45;-6.60;99.90
24468;DHT22;12634;50.852;5.676;2024-01-10T07:08:13;-6.50;99.90
24468;DHT22;12634;50.852;5.676;2024-01-10T07:10:42;-6.30;99.90
24468;DHT22;12634;50.852;5.676;2024-01-10T07:13:10;-6.30;99.90
24468;DHT22;12634;50.852;5.676;2024-01-10T07:15:37;-6.20;99.90
24468;DHT22;12634;50.852;5.676;2024-01-10T07:18:06;-6.40;99.90
24468;DHT22;12634;50.852;5.676;2024-01-10T07:20:33;-6.30;99.90
24468;DHT22;12634;50.852;5.676;2024-01-10T07:23:01;-6.30;99.90
24468;DHT22;12634;50.852;5.676;2024-01-10T07:25:28;-6.20;99.90
24468;DHT22;12634;50.852;5.676;2024-01-10T07:27:55;-6.30;99.90
24468;DHT22;12634;50.852;5.676;2024-01-10T07:30:22;-6.30;99.90
24468;DHT22;12634;50.852;5.676;2024-01-10T07:32:50;-6.30;99.90
24468;DHT22;12634;50.852;5.676;2024-01-10T07:35:18;-6.30;99.90
24468;DHT22;12634;50.852;5.676;2024-01-10T07:37:46;-6.40;99.90
24468;DHT22;12634;50.852;5.676;2024-01-10T07:40:13;-6.50;99.90
24468;DHT22;12634;50.852;5.676;2024-01-10T07:42:42;-6.50;99.90
24468;DHT22;12634;50.852;5.676;2024-01-10T07:45:10;-6.40;99.90
24468;DHT22;12634;50.852;5.676;2024-01-10T07:47:38;-6.40;99.90
24468;DHT22;12634;50.852;5.676;2024-01-10T07:50:06;-6.40;99.90
24468;DHT22;12634;50.852;5.676;2024-01-10T07:52:34;-6.50;99.90
24468;DHT22;12634;50.852;5.676;2024-01-10T07:55:02;-6.50;99.90
24468;DHT22;12634;50.852;5.676;2024-01-10T07:57:30;-6.30;99.90
24468;DHT22;12634;50.852;5.676;2024-01-10T07:59:58;-6.20;99.90
24468;DHT22;12634;50.852;5.676;2024-01-10T08:02:25;-6.10;99.90
24468;DHT22;12634;50.852;5.676;2024-01-10T08:04:52;-5.70;99.90
24468;DHT22;12634;50.852;5.676;2024-01-10T08:07:19;-5.30;99.90
24468;DHT22;12634;50.852;5.676;2024-01-10T08:09:48;-5.00;99.90
24468;DHT22;12634;50.852;5.676;2024-01-10T08:12:15;-4.90;99.90
24468;DHT22;12634;50.852;5.676;2024-01-10T08:14:43;-4.90;99.90
24468;DHT22;12634;50.852;5.676;2024-01-10T08:17:11;-5.10;99.90
24468;DHT22;12634;50.852;5.676;2024-01-10T08:19:38;-5.20;99.90
24468;DHT22;12634;50.852;5.676;2024-01-10T08:22:06;-5.40;99.90
24468;DHT22;12634;50.852;5.676;2024-01-10T08:24:33;-5.50;99.90
24468;DHT22;12634;50.852;5.676;2024-01-10T08:27:02;-5.50;99.90
24468;DHT22;12634;50.852;5.676;2024-01-10T08:29:30;-5.50;99.90
24468;DHT22;12634;50.852;5.676;2024-01-10T08:31:57;-5.50;99.90
24468;DHT22;12634;50.852;5.676;2024-01-10T08:34:24;-5.50;99.90
24468;DHT22;12634;50.852;5.676;2024-01-10T08:36:52;-5.40;99.90
24468;DHT22;12634;50.852;5.676;2024-01-10T08:39:19;-5.50;99.90
24468;DHT22;12634;50.852;5.676;2024-01-10T08:41:47;-5.40;99.90
24468;DHT22;12634;50.852;5.676;2024-01-10T08:44:16;-5.40;99.90
24468;DHT22;12634;50.852;5.676;2024-01-10T08:46:43;-5.40;99.90
24468;DHT22;12634;50.852;5.676;2024-01-10T08:49:11;-5.40;99.90
24468;DHT22;12634;50.852;5.676;2024-01-10T08:51:38;-5.30;99.90
24468;DHT22;12634;50.852;5.676;2024-01-10T08:54:06;-5.30;99.90
24468;DHT22;12634;50.852;5.676;2024-01-10T08:56:34;-5.30;99.90
24468;DHT22;12634;50.852;5.676;2024-01-10T08:59:01;-5.20;99.90
24468;DHT22;12634;50.852;5.676;2024-01-10T09:01:31;-5.00;99.90
24468;DHT22;12634;50.852;5.676;2024-01-10T09:03:58;-4.90;99.90
24468;DHT22;12634;50.852;5.676;2024-01-10T09:06:25;-4.70;99.90
24468;DHT22;12634;50.852;5.676;2024-01-10T09:08:52;-4.50;99.90
24468;DHT22;12634;50.852;5.676;2024-01-10T09:11:19;-4.20;99.90
24468;DHT22;12634;50.852;5.676;2024-01-10T09:13:46;-3.90;99.90
24468;DHT22;12634;50.852;5.676;2024-01-10T09:16:15;-3.70;99.90
24468;DHT22;12634;50.852;5.676;2024-01-10T09:18:43;-3.70;99.90
24468;DHT22;12634;50.852;5.676;2024-01-10T09:21:11;-3.90;99.90
24468;DHT22;12634;50.852;5.676;2024-01-10T09:23:38;-3.90;99.90
24468;DHT22;12634;50.852;5.676;2024-01-10T09:26:05;-4.00;99.90
24468;DHT22;12634;50.852;5.676;2024-01-10T09:28:32;-4.10;99.90
24468;DHT22;12634;50.852;5.676;2024-01-10T09:30:59;-4.20;99.90
24468;DHT22;12634;50.852;5.676;2024-01-10T09:33:27;-4.10;99.90
24468;DHT22;12634;50.852;5.676;2024-01-10T09:35:55;-3.90;99.90
24468;DHT22;12634;50.852;5.676;2024-01-10T09:38:22;-3.60;99.90
24468;DHT22;12634;50.852;5.676;2024-01-10T09:40:50;-3.50;99.90
24468;DHT22;12634;50.852;5.676;2024-01-10T09:43:18;-3.60;99.90
24468;DHT22;12634;50.852;5.676;2024-01-10T09:45:48;-3.30;99.90
24468;DHT22;12634;50.852;5.676;2024-01-10T09:48:16;-2.90;99.90
24468;DHT22;12634;50.852;5.676;2024-01-10T09:50:44;-2.80;99.90
24468;DHT22;12634;50.852;5.676;2024-01-10T09:53:22;-2.50;99.90
24468;DHT22;12634;50.852;5.676;2024-01-10T09:55:50;-2.40;99.90
24468;DHT22;12634;50.852;5.676;2024-01-10T09:58:18;-2.60;99.90
24468;DHT22;12634;50.852;5.676;2024-01-10T10:00:45;-2.60;99.90
24468;DHT22;12634;50.852;5.676;2024-01-10T10:03:14;-2.60;99.90
24468;DHT22;12634;50.852;5.676;2024-01-10T10:05:44;-2.70;99.90
24468;DHT22;12634;50.852;5.676;2024-01-10T10:08:14;-2.90;99.90
24468;DHT22;12634;50.852;5.676;2024-01-10T10:10:45;-3.00;99.90
24468;DHT22;12634;50.852;5.676;2024-01-10T10:13:24;-3.30;99.90
24468;DHT22;12634;50.852;5.676;2024-01-10T10:15:58;-3.50;99.90
24468;DHT22;12634;50.852;5.676;2024-01-10T10:18:26;-3.50;99.90
24468;DHT22;12634;50.852;5.676;2024-01-10T10:21:07;-3.30;99.90
24468;DHT22;12634;50.852;5.676;2024-01-10T10:23:37;-3.30;99.90
24468;DHT22;12634;50.852;5.676;2024-01-10T10:26:11;-3.30;99.90
24468;DHT22;12634;50.852;5.676;2024-01-10T10:28:45;-3.20;99.90
24468;DHT22;12634;50.852;5.676;2024-01-10T10:31:12;-3.10;99.90
24468;DHT22;12634;50.852;5.676;2024-01-10T10:33:39;-2.90;99.90
24468;DHT22;12634;50.852;5.676;2024-01-10T10:36:07;-2.90;99.90
24468;DHT22;12634;50.852;5.676;2024-01-10T10:38:36;-2.70;99.90
24468;DHT22;12634;50.852;5.676;2024-01-10T10:41:05;-2.70;99.90
24468;DHT22;12634;50.852;5.676;2024-01-10T10:43:36;-2.30;99.90
24468;DHT22;12634;50.852;5.676;2024-01-10T10:46:05;-2.40;99.90
24468;DHT22;12634;50.852;5.676;2024-01-10T10:48:33;-2.40;99.90
24468;DHT22;12634;50.852;5.676;2024-01-10T10:51:04;-2.20;99.90
24468;DHT22;12634;50.852;5.676;2024-01-10T10:53:34;-1.90;99.90
24468;DHT22;12634;50.852;5.676;2024-01-10T10:56:05;-2.00;99.90
24468;DHT22;12634;50.852;5.676;2024-01-10T10:58:43;-1.70;99.90
24468;DHT22;12634;50.852;5.676;2024-01-10T11:01:12;-1.90;99.90
24468;DHT22;12634;50.852;5.676;2024-01-10T11:03:40;-1.90;99.90
24468;DHT22;12634;50.852;5.676;2024-01-10T11:06:09;-1.30;99.90
24468;DHT22;12634;50.852;5.676;2024-01-10T11:08:38;-1.50;99.90
24468;DHT22;12634;50.852;5.676;2024-01-10T11:11:30;-1.00;99.90
24468;DHT22;12634;50.852;5.676;2024-01-10T11:14:13;-1.10;99.90
24468;DHT22;12634;50.852;5.676;2024-01-10T11:17:10;-0.90;99.90
24468;DHT22;12634;50.852;5.676;2024-01-10T11:20:01;-1.00;99.90
24468;DHT22;12634;50.852;5.676;2024-01-10T11:22:48;-0.80;99.90
24468;DHT22;12634;50.852;5.676;2024-01-10T11:25:19;-0.90;99.90
24468;DHT22;12634;50.852;5.676;2024-01-10T11:27:52;-1.40;99.90
24468;DHT22;12634;50.852;5.676;2024-01-10T11:30:33;-1.70;99.90
24468;DHT22;12634;50.852;5.676;2024-01-10T11:33:21;-1.80;99.90
24468;DHT22;12634;50.852;5.676;2024-01-10T11:36:09;-2.00;99.90
24468;DHT22;12634;50.852;5.676;2024-01-10T11:38:41;-2.00;99.90
24468;DHT22;12634;50.852;5.676;2024-01-10T11:41:11;-2.00;99.90
24468;DHT22;12634;50.852;5.676;2024-01-10T11:43:40;-1.80;99.90
24468;DHT22;12634;50.852;5.676;2024-01-10T11:46:08;-1.90;99.90
24468;DHT22;12634;50.852;5.676;2024-01-10T11:48:38;-1.70;99.90
24468;DHT22;12634;50.852;5.676;2024-01-10T11:51:06;-1.30;99.90
24468;DHT22;12634;50.852;5.676;2024-01-10T11:53:44;-1.30;99.90
24468;DHT22;12634;50.852;5.676;2024-01-10T11:56:13;-1.00;99.90
24468;DHT22;12634;50.852;5.676;2024-01-10T11:59:01;-1.00;99.90
24468;DHT22;12634;50.852;5.676;2024-01-10T12:01:30;-1.30;99.90
24468;DHT22;12634;50.852;5.676;2024-01-10T12:03:57;-1.20;99.90
24468;DHT22;12634;50.852;5.676;2024-01-10T12:06:25;-1.10;99.90
24468;DHT22;12634;50.852;5.676;2024-01-10T12:08:53;-1.10;99.90
24468;DHT22;12634;50.852;5.676;2024-01-10T12:11:20;-1.00;99.90
24468;DHT22;12634;50.852;5.676;2024-01-10T12:13:47;-1.00;99.90
24468;DHT22;12634;50.852;5.676;2024-01-10T12:16:16;-0.70;99.90
24468;DHT22;12634;50.852;5.676;2024-01-10T12:18:43;-0.40;99.90
24468;DHT22;12634;50.852;5.676;2024-01-10T12:21:10;0.20;99.90
24468;DHT22;12634;50.852;5.676;2024-01-10T12:23:38;0.00;99.90
24468;DHT22;12634;50.852;5.676;2024-01-10T12:26:08;-0.20;99.90
24468;DHT22;12634;50.852;5.676;2024-01-10T12:28:38;0.00;99.90
24468;DHT22;12634;50.852;5.676;2024-01-10T12:31:06;0.10;99.90
24468;DHT22;12634;50.852;5.676;2024-01-10T12:33:36;-0.20;99.90
24468;DHT22;12634;50.852;5.676;2024-01-10T12:36:07;-0.10;99.90
24468;DHT22;12634;50.852;5.676;2024-01-10T12:38:35;0.10;99.90
24468;DHT22;12634;50.852;5.676;2024-01-10T12:41:04;-0.10;99.90
24468;DHT22;12634;50.852;5.676;2024-01-10T12:43:31;0.30;99.90
24468;DHT22;12634;50.852;5.676;2024-01-10T12:46:06;0.80;99.90
24468;DHT22;12634;50.852;5.676;2024-01-10T12:48:35;0.50;99.90
24468;DHT22;12634;50.852;5.676;2024-01-10T12:51:04;1.30;99.90
24468;DHT22;12634;50.852;5.676;2024-01-10T12:53:34;1.00;99.90
24468;DHT22;12634;50.852;5.676;2024-01-10T12:56:02;1.40;99.90
24468;DHT22;12634;50.852;5.676;2024-01-10T12:58:30;1.10;99.90
24468;DHT22;12634;50.852;5.676;2024-01-10T13:00:58;1.60;99.90
24468;DHT22;12634;50.852;5.676;2024-01-10T13:03:25;1.90;99.90
24468;DHT22;12634;50.852;5.676;2024-01-10T13:05:54;1.40;99.90
24468;DHT22;12634;50.852;5.676;2024-01-10T13:08:21;1.50;99.90
24468;DHT22;12634;50.852;5.676;2024-01-10T13:10:49;1.30;99.90
24468;DHT22;12634;50.852;5.676;2024-01-10T13:13:16;1.20;99.90
24468;DHT22;12634;50.852;5.676;2024-01-10T13:15:44;0.60;99.90
24468;DHT22;12634;50.852;5.676;2024-01-10T13:18:12;0.50;99.90
24468;DHT22;12634;50.852;5.676;2024-01-10T13:20:40;1.10;99.90
24468;DHT22;12634;50.852;5.676;2024-01-10T13:23:10;1.00;99.90
24468;DHT22;12634;50.852;5.676;2024-01-10T13:25:38;1.00;99.90
24468;DHT22;12634;50.852;5.676;2024-01-10T13:28:05;0.70;99.90
24468;DHT22;12634;50.852;5.676;2024-01-10T13:30:32;0.90;99.90
24468;DHT22;12634;50.852;5.676;2024-01-10T13:32:59;0.70;99.90
24468;DHT22;12634;50.852;5.676;2024-01-10T13:35:27;1.30;99.90
24468;DHT22;12634;50.852;5.676;2024-01-10T13:37:54;1.80;99.90
24468;DHT22;12634;50.852;5.676;2024-01-10T13:40:23;1.80;99.90
24468;DHT22;12634;50.852;5.676;2024-01-10T13:42:53;1.80;99.90
24468;DHT22;12634;50.852;5.676;2024-01-10T13:45:20;2.00;99.90
24468;DHT22;12634;50.852;5.676;2024-01-10T13:47:48;1.90;99.90
24468;DHT22;12634;50.852;5.676;2024-01-10T13:50:16;2.10;99.90
24468;DHT22;12634;50.852;5.676;2024-01-10T13:52:43;2.70;99.90
24468;DHT22;12634;50.852;5.676;2024-01-10T13:55:10;2.50;99.90
24468;DHT22;12634;50.852;5.676;2024-01-10T13:57:38;2.30;99.90
24468;DHT22;12634;50.852;5.676;2024-01-10T14:00:06;2.20;99.90
24468;DHT22;12634;50.852;5.676;2024-01-10T14:02:35;2.30;99.90
24468;DHT22;12634;50.852;5.676;2024-01-10T14:05:02;1.90;99.90
24468;DHT22;12634;50.852;5.676;2024-01-10T14:07:32;1.60;99.90
24468;DHT22;12634;50.852;5.676;2024-01-10T14:09:59;1.80;99.90
24468;DHT22;12634;50.852;5.676;2024-01-10T14:12:27;2.10;99.90
24468;DHT22;12634;50.852;5.676;2024-01-10T14:14:57;1.40;99.90
24468;DHT22;12634;50.852;5.676;2024-01-10T14:17:25;1.30;99.90
24468;DHT22;12634;50.852;5.676;2024-01-10T14:19:52;1.20;99.90
24468;DHT22;12634;50.852;5.676;2024-01-10T14:22:20;1.10;99.90
24468;DHT22;12634;50.852;5.676;2024-01-10T14:24:49;1.20;99.90
24468;DHT22;12634;50.852;5.676;2024-01-10T14:27:17;1.20;99.90
24468;DHT22;12634;50.852;5.676;2024-01-10T14:29:44;0.80;99.90
24468;DHT22;12634;50.852;5.676;2024-01-10T14:32:13;1.10;99.90
24468;DHT22;12634;50.852;5.676;2024-01-10T14:34:40;1.50;99.90
24468;DHT22;12634;50.852;5.676;2024-01-10T14:37:08;1.20;99.90
24468;DHT22;12634;50.852;5.676;2024-01-10T14:39:35;0.80;99.90
24468;DHT22;12634;50.852;5.676;2024-01-10T14:42:05;0.80;99.90
24468;DHT22;12634;50.852;5.676;2024-01-10T14:44:34;1.00;99.90
24468;DHT22;12634;50.852;5.676;2024-01-10T14:47:01;0.90;99.90
24468;DHT22;12634;50.852;5.676;2024-01-10T14:49:31;-0.30;99.90
24468;DHT22;12634;50.852;5.676;2024-01-10T14:51:58;-0.60;99.90
24468;DHT22;12634;50.852;5.676;2024-01-10T14:54:25;-0.70;99.90
24468;DHT22;12634;50.852;5.676;2024-01-10T14:56:52;-0.90;99.90
24468;DHT22;12634;50.852;5.676;2024-01-10T14:59:19;-0.90;99.90
24468;DHT22;12634;50.852;5.676;2024-01-10T15:01:46;-1.00;99.90
24468;DHT22;12634;50.852;5.676;2024-01-10T15:04:14;-0.90;99.90
24468;DHT22;12634;50.852;5.676;2024-01-10T15:06:46;-0.90;99.90
24468;DHT22;12634;50.852;5.676;2024-01-10T15:09:13;-1.00;99.90
24468;DHT22;12634;50.852;5.676;2024-01-10T15:11:41;-1.00;99.90
24468;DHT22;12634;50.852;5.676;2024-01-10T15:14:08;-1.10;99.90
24468;DHT22;12634;50.852;5.676;2024-01-10T15:16:35;-1.10;99.90
24468;DHT22;12634;50.852;5.676;2024-01-10T15:19:03;-1.20;99.90
24468;DHT22;12634;50.852;5.676;2024-01-10T15:21:30;-1.30;99.90
24468;DHT22;12634;50.852;5.676;2024-01-10T15:23:59;-1.20;99.90
24468;DHT22;12634;50.852;5.676;2024-01-10T15:26:26;-1.20;99.90
24468;DHT22;12634;50.852;5.676;2024-01-10T15:28:53;-1.40;99.90
24468;DHT22;12634;50.852;5.676;2024-01-10T15:31:21;-1.30;99.90
24468;DHT22;12634;50.852;5.676;2024-01-10T15:33:49;-1.40;99.90
24468;DHT22;12634;50.852;5.676;2024-01-10T15:36:16;-1.40;99.90
24468;DHT22;12634;50.852;5.676;2024-01-10T15:38:43;-1.40;99.90
24468;DHT22;12634;50.852;5.676;2024-01-10T15:41:12;-1.50;99.90